Time;durP1;ratioP1;P1;durP2;ratioP2;P2;SDS_P1;SDS_P2;PMS_P1;PMS_P2;Temp;Humidity;BMP_temperature;BMP_pressure;BME280_temperature;BME280_humidity;BME280_pressure;Samples;Min_cycle;Max_cycle;Signal;HPM_P1;HPM_P2
2022/04/26 03:38:12;;;;;;;12.02;8.82;;;7.20;99.90;;;;;;5078144;28;20121;-51
2022/04/26 03:40:37;;;;;;;12.80;8.38;;;7.10;99.90;;;;;;5078063;28;20048;-48
2022/04/26 03:43:03;;;;;;;11.00;9.02;;;7.10;99.90;;;;;;5078783;28;20032;-48
2022/04/26 03:45:28;;;;;;;11.80;8.95;;;7.10;99.90;;;;;;5077435;28;20039;-48
2022/04/26 03:47:54;;;;;;;10.75;8.38;;;7.10;99.90;;;;;;5080376;28;20115;-48
2022/04/26 03:50:20;;;;;;;13.25;8.60;;;7.10;99.90;;;;;;5083751;28;20481;-48
2022/04/26 03:52:46;;;;;;;12.95;9.27;;;7.00;99.90;;;;;;5081074;28;20024;-48
2022/04/26 03:55:11;;;;;;;10.48;8.55;;;7.00;99.90;;;;;;5089392;28;20020;-48
2022/04/26 03:57:37;;;;;;;11.48;8.52;;;7.00;99.90;;;;;;5075855;28;20024;-47
2022/04/26 04:00:04;;;;;;;14.15;9.15;;;7.00;99.90;;;;;;5072483;28;20437;-50
2022/04/26 04:02:29;;;;;;;12.40;9.00;;;7.00;99.90;;;;;;5085230;28;20040;-49
2022/04/26 04:04:55;;;;;;;11.98;8.02;;;6.90;99.90;;;;;;5083891;28;20028;-48
2022/04/26 04:07:20;;;;;;;10.40;8.30;;;6.80;99.90;;;;;;5068855;28;20036;-50
2022/04/26 04:09:46;;;;;;;12.18;9.02;;;6.80;99.90;;;;;;5067515;28;20124;-52
2022/04/26 04:12:11;;;;;;;13.45;9.70;;;6.80;99.90;;;;;;5070858;28;20538;-48
2022/04/26 04:14:37;;;;;;;14.25;10.30;;;6.80;99.90;;;;;;5068728;28;20492;-48
2022/04/26 04:17:02;;;;;;;13.15;10.10;;;6.80;99.90;;;;;;5073883;28;20077;-49
2022/04/26 04:19:29;;;;;;;15.27;11.10;;;6.80;99.90;;;;;;5068752;28;20508;-48
2022/04/26 04:21:54;;;;;;;14.90;9.55;;;6.80;99.90;;;;;;5076535;28;20016;-50
2022/04/26 04:24:20;;;;;;;15.10;9.32;;;6.70;99.90;;;;;;5086826;28;20035;-49
2022/04/26 04:26:46;;;;;;;17.27;10.65;;;6.70;99.90;;;;;;5089059;28;20024;-50
2022/04/26 04:29:13;;;;;;;15.63;11.00;;;6.70;99.90;;;;;;5088656;28;20047;-48
2022/04/26 04:31:39;;;;;;;11.30;9.30;;;6.80;99.90;;;;;;5087979;28;20452;-50
2022/04/26 04:34:04;;;;;;;16.88;10.63;;;6.90;99.90;;;;;;5088154;28;20103;-48
2022/04/26 04:36:30;;;;;;;13.50;10.05;;;6.90;99.90;;;;;;5088855;28;20031;-49
2022/04/26 04:38:56;;;;;;;14.35;10.10;;;6.90;99.90;;;;;;5088886;28;20024;-49
2022/04/26 04:41:22;;;;;;;15.05;10.20;;;7.00;99.90;;;;;;5088807;28;20404;-50
2022/04/26 04:43:47;;;;;;;15.48;9.95;;;6.90;99.90;;;;;;5084731;28;20104;-48
2022/04/26 04:46:13;;;;;;;15.07;9.70;;;6.90;99.90;;;;;;5079890;28;20032;-51
2022/04/26 04:48:38;;;;;;;15.82;10.05;;;6.90;99.90;;;;;;5087882;28;20424;-50
2022/04/26 04:51:04;;;;;;;16.35;10.02;;;6.90;99.90;;;;;;5088164;28;20028;-47
2022/04/26 04:53:29;;;;;;;13.85;10.55;;;6.90;99.90;;;;;;5086359;28;20507;-47
2022/04/26 04:55:55;;;;;;;14.50;10.30;;;7.00;99.90;;;;;;5088716;28;20020;-50
2022/04/26 04:58:20;;;;;;;17.13;11.20;;;7.00;99.90;;;;;;5087285;28;20072;-49
2022/04/26 05:00:46;;;;;;;12.43;9.68;;;7.10;99.90;;;;;;5088047;28;20141;-50
2022/04/26 05:03:11;;;;;;;12.48;9.88;;;7.10;99.90;;;;;;5087548;28;20110;-48
2022/04/26 05:05:37;;;;;;;14.27;9.70;;;7.10;99.90;;;;;;5088421;28;20183;-51
2022/04/26 05:08:02;;;;;;;15.43;10.77;;;7.10;99.90;;;;;;5086856;28;20122;-50
2022/04/26 05:10:32;;;;;;;15.80;10.90;;;7.10;99.90;;;;;;5088200;28;20081;-48
2022/04/26 05:12:57;;;;;;;17.90;10.57;;;7.20;99.90;;;;;;5086104;28;20638;-50
2022/04/26 05:15:25;;;;;;;14.45;10.85;;;7.20;99.90;;;;;;5088071;28;20132;-50
2022/04/26 05:17:51;;;;;;;13.90;10.57;;;7.20;99.90;;;;;;5087944;28;20024;-48
2022/04/26 05:20:17;;;;;;;17.60;11.43;;;7.20;99.90;;;;;;5088179;28;20027;-49
2022/04/26 05:25:27;;;;;;;23.98;17.02;;;7.30;99.90;;;;;;5088063;28;20059;-48
2022/04/26 05:27:52;;;;;;;20.05;14.52;;;7.30;99.90;;;;;;5087955;28;20052;-47
2022/04/26 05:30:18;;;;;;;15.45;12.02;;;7.30;99.90;;;;;;5084129;28;20038;-49
2022/04/26 05:32:44;;;;;;;14.68;10.77;;;7.40;99.90;;;;;;5084892;28;20061;-49
2022/04/26 05:35:10;;;;;;;13.90;10.48;;;7.40;99.90;;;;;;5085361;28;20103;-49
2022/04/26 05:37:36;;;;;;;15.07;10.85;;;7.50;99.90;;;;;;5082523;28;20040;-39
2022/04/26 05:40:02;;;;;;;12.75;10.02;;;7.60;99.90;;;;;;5082457;28;20035;-40
2022/04/26 05:42:29;;;;;;;16.48;11.65;;;7.60;99.90;;;;;;5079986;28;20032;-39
2022/04/26 05:44:56;;;;;;;17.83;11.48;;;7.70;99.90;;;;;;5081040;28;20027;-39
2022/04/26 05:47:22;;;;;;;18.15;12.15;;;7.70;99.90;;;;;;5080369;28;20065;-39
2022/04/26 05:49:48;;;;;;;16.35;11.18;;;7.80;99.90;;;;;;5080454;28;20032;-48
2022/04/26 05:52:13;;;;;;;19.05;12.65;;;7.80;99.90;;;;;;5079241;28;20032;-49
2022/04/26 05:54:39;;;;;;;17.73;12.82;;;7.90;99.90;;;;;;5077912;28;20021;-49
2022/04/26 05:57:05;;;;;;;17.33;12.57;;;7.90;99.90;;;;;;5077847;28;20378;-49
2022/04/26 05:59:31;;;;;;;14.93;11.82;;;7.90;99.90;;;;;;5079630;28;20017;-51
2022/04/26 06:01:56;;;;;;;17.02;11.75;;;8.00;99.90;;;;;;5076937;28;20036;-47
2022/04/26 06:04:23;;;;;;;16.88;12.75;;;8.10;99.90;;;;;;5081401;28;20020;-51
2022/04/26 06:06:48;;;;;;;23.20;13.55;;;8.20;99.90;;;;;;5078836;28;20024;-47
2022/04/26 06:09:14;;;;;;;23.15;15.20;;;8.30;99.90;;;;;;5078751;28;20497;-48
2022/04/26 06:11:40;;;;;;;24.38;13.77;;;8.30;99.90;;;;;;5079710;28;20017;-48
2022/04/26 06:14:06;;;;;;;22.45;15.02;;;8.40;99.90;;;;;;5079182;28;20499;-46
2022/04/26 06:16:32;;;;;;;24.45;16.02;;;8.50;99.90;;;;;;5076204;28;20047;-48
2022/04/26 06:18:57;;;;;;;30.10;17.67;;;8.50;99.90;;;;;;5070429;28;20067;-47
2022/04/26 06:21:23;;;;;;;28.40;17.92;;;8.70;99.90;;;;;;5070076;28;20076;-48
2022/04/26 06:23:49;;;;;;;25.35;17.42;;;8.70;99.90;;;;;;5068422;28;20024;-49
2022/04/26 06:26:14;;;;;;;30.67;17.42;;;8.80;99.90;;;;;;5070566;28;20039;-48
2022/04/26 06:28:40;;;;;;;29.27;18.38;;;8.90;99.90;;;;;;5070395;28;20024;-49
2022/04/26 06:31:05;;;;;;;28.20;18.13;;;9.00;99.90;;;;;;5070429;28;20031;-49
2022/04/26 06:33:33;;;;;;;29.00;19.08;;;9.10;99.90;;;;;;5069739;28;20275;-50
2022/04/26 06:35:58;;;;;;;26.42;18.15;;;9.20;99.90;;;;;;5070370;28;20027;-51
2022/04/26 06:38:24;;;;;;;27.13;19.05;;;9.30;99.90;;;;;;5072847;28;20032;-49
2022/04/26 06:40:51;;;;;;;27.08;18.50;;;9.40;99.90;;;;;;5079378;28;20119;-49
2022/04/26 06:43:17;;;;;;;33.25;20.08;;;9.50;99.90;;;;;;5090635;28;20068;-48
2022/04/26 06:45:46;;;;;;;31.15;20.42;;;9.60;99.90;;;;;;5091295;28;20475;-47
2022/04/26 06:48:13;;;;;;;31.23;20.98;;;9.70;99.90;;;;;;5090685;28;20020;-47
2022/04/26 06:50:39;;;;;;;35.05;21.50;;;9.90;99.90;;;;;;5090443;28;20077;-51
2022/04/26 06:53:05;;;;;;;26.85;19.13;;;9.90;99.90;;;;;;5089523;28;20261;-48
2022/04/26 06:55:31;;;;;;;27.60;19.48;;;10.00;99.90;;;;;;5089752;28;20073;-48
2022/04/26 06:57:57;;;;;;;28.70;19.45;;;10.10;99.90;;;;;;5090465;28;20112;-48
2022/04/26 07:00:23;;;;;;;28.73;19.50;;;10.30;99.90;;;;;;5090161;28;20488;-47
2022/04/26 07:02:49;;;;;;;29.40;19.00;;;10.40;99.90;;;;;;5089857;28;20477;-48
2022/04/26 07:05:15;;;;;;;28.55;18.35;;;10.50;99.90;;;;;;5090282;28;20032;-48
2022/04/26 07:07:42;;;;;;;26.13;18.83;;;10.50;99.90;;;;;;5089899;28;20048;-49
2022/04/26 07:10:09;;;;;;;32.15;20.42;;;10.70;99.90;;;;;;5089852;28;20140;-50
2022/04/26 07:12:34;;;;;;;27.40;18.60;;;10.70;99.90;;;;;;5089276;28;20069;-49
2022/04/26 07:15:00;;;;;;;27.20;19.65;;;10.90;99.90;;;;;;5089822;28;20120;-51
2022/04/26 07:17:27;;;;;;;26.65;18.17;;;11.00;99.90;;;;;;5088518;28;20020;-48
2022/04/26 07:19:52;;;;;;;32.17;21.00;;;11.10;99.90;;;;;;5089722;28;20055;-48
2022/04/26 07:22:18;;;;;;;32.42;19.70;;;11.30;99.90;;;;;;5088806;28;20108;-39
2022/04/26 07:24:44;;;;;;;29.23;20.80;;;11.40;99.90;;;;;;5089555;28;20089;-39
2022/04/26 07:27:10;;;;;;;26.73;19.75;;;11.60;99.90;;;;;;5089635;28;20024;-39
2022/04/26 07:29:36;;;;;;;28.85;19.58;;;11.70;99.90;;;;;;5089957;28;20031;-39
2022/04/26 07:32:02;;;;;;;36.22;21.85;;;11.90;99.90;;;;;;5088913;28;20051;-40
2022/04/26 07:34:29;;;;;;;34.13;20.98;;;12.00;99.90;;;;;;5089556;28;20020;-39
2022/04/26 07:37:00;;;;;;;28.02;19.63;;;12.20;99.90;;;;;;5089313;28;20016;-40
2022/04/26 07:39:30;;;;;;;26.13;18.00;;;12.30;99.90;;;;;;5089341;28;20052;-40
2022/04/26 07:41:56;;;;;;;27.60;19.38;;;12.40;99.90;;;;;;5088611;28;20023;-39
2022/04/26 07:44:22;;;;;;;25.75;17.48;;;12.50;99.90;;;;;;5089007;28;20028;-39
2022/04/26 07:46:49;;;;;;;29.98;18.20;;;12.70;99.90;;;;;;5089190;28;20031;-40
2022/04/26 07:49:16;;;;;;;38.25;17.90;;;13.00;99.90;;;;;;5089100;28;20024;-39
2022/04/26 07:51:43;;;;;;;23.92;16.10;;;13.10;99.90;;;;;;5088249;28;20020;-39
2022/04/26 07:54:11;;;;;;;23.58;16.58;;;13.30;99.90;;;;;;5088958;28;20472;-39
2022/04/26 07:56:37;;;;;;;19.05;13.25;;;13.60;99.90;;;;;;5088806;28;20384;-40
2022/04/26 07:59:04;;;;;;;18.58;11.75;;;13.90;99.90;;;;;;5088918;28;20474;-39
2022/04/26 08:01:30;;;;;;;16.95;10.30;;;14.30;99.90;;;;;;5087116;28;20518;-39
2022/04/26 08:03:56;;;;;;;14.13;8.73;;;14.70;99.90;;;;;;5080861;28;20034;-39
2022/04/26 08:06:22;;;;;;;13.48;8.52;;;15.00;99.90;;;;;;5076909;28;20020;-38
2022/04/26 08:08:47;;;;;;;7.00;6.32;;;15.40;99.90;;;;;;5076336;28;20570;-40
2022/04/26 08:11:13;;;;;;;8.80;6.57;;;16.10;99.80;;;;;;5073779;28;20030;-38
2022/04/26 08:13:40;;;;;;;8.00;5.43;;;17.50;94.60;;;;;;5078649;28;20028;-38
2022/04/26 08:16:06;;;;;;;6.53;4.85;;;19.10;88.20;;;;;;5077826;28;20016;-40
2022/04/26 08:18:32;;;;;;;7.68;4.65;;;20.40;83.70;;;;;;5077185;28;20024;-39
2022/04/26 08:20:58;;;;;;;3.70;3.28;;;21.50;77.70;;;;;;5077266;28;20025;-39
2022/04/26 08:23:23;;;;;;;5.13;3.40;;;23.10;63.80;;;;;;5078547;28;20170;-38
2022/04/26 08:28:35;;;;;;;4.80;3.95;;;24.00;57.60;;;;;;5088724;28;20440;-40
2022/04/26 08:31:01;;;;;;;5.68;4.10;;;25.90;51.60;;;;;;5076980;28;20028;-40
2022/04/26 08:33:28;;;;;;;4.75;4.22;;;25.50;46.90;;;;;;5078007;28;20378;-41
2022/04/26 08:35:54;;;;;;;5.80;4.38;;;25.60;50.80;;;;;;5078938;28;20016;-40
2022/04/26 08:38:19;;;;;;;5.68;5.18;;;26.80;50.30;;;;;;5075573;28;20028;-40
2022/04/26 08:40:45;;;;;;;4.40;4.00;;;27.40;46.50;;;;;;5077276;28;20392;-41
2022/04/26 08:43:11;;;;;;;6.05;4.07;;;27.50;48.30;;;;;;5076151;28;20081;-41
2022/04/26 08:45:40;;;;;;;6.00;4.43;;;27.60;46.80;;;;;;5075295;28;20060;-40
2022/04/26 08:51:03;;;;;;;5.82;4.57;;;26.40;47.20;;;;;;5076919;28;20386;-39
2022/04/26 08:53:31;;;;;;;4.82;4.35;;;27.80;48.00;;;;;;5077285;28;20025;-41
2022/04/26 08:56:02;;;;;;;5.28;3.83;;;28.50;42.10;;;;;;5077013;28;20024;-42
2022/04/26 08:58:31;;;;;;;6.07;4.22;;;29.20;45.70;;;;;;5093135;28;20020;-39
2022/04/26 09:01:11;;;;;;;4.30;3.88;;;29.30;44.30;;;;;;5076873;28;20024;-41
2022/04/26 09:03:56;;;;;;;4.15;3.75;;;30.10;42.10;;;;;;5078135;28;20031;-42
2022/04/26 09:06:43;;;;;;;5.93;4.28;;;30.20;42.20;;;;;;5078788;28;20020;-42
2022/04/26 09:09:22;;;;;;;7.47;4.68;;;30.10;42.70;;;;;;5077682;28;20048;-40
2022/04/26 09:11:48;;;;;;;4.00;3.58;;;30.60;41.30;;;;;;5076626;28;20025;-39
2022/04/26 09:14:34;;;;;;;5.80;4.45;;;30.20;44.10;;;;;;5077100;28;20031;-42
2022/04/26 09:17:11;;;;;;;9.13;4.00;;;30.30;42.30;;;;;;5073231;28;20021;-41
2022/04/26 09:19:56;;;;;;;4.70;4.25;;;30.40;40.50;;;;;;5080224;28;20024;-41
2022/04/26 09:22:25;;;;;;;21.35;19.05;;;29.10;41.50;;;;;;5077233;28;20470;-40
2022/04/26 09:24:57;;;;;;;14.23;11.73;;;27.90;42.30;;;;;;5081537;28;20028;-40
2022/04/26 09:27:24;;;;;;;7.20;4.93;;;26.20;43.30;;;;;;5082387;28;20024;-39
2022/04/26 09:29:49;;;;;;;5.35;4.30;;;24.40;45.30;;;;;;5081392;28;20453;-39
2022/04/26 09:32:15;;;;;;;7.72;4.40;;;23.60;47.70;;;;;;5079950;28;20012;-39
2022/04/26 09:34:41;;;;;;;6.65;4.60;;;22.50;49.10;;;;;;5082500;28;20314;-39
2022/04/26 09:37:06;;;;;;;7.05;4.43;;;22.00;51.60;;;;;;5080760;28;20039;-39
2022/04/26 09:39:32;;;;;;;5.55;4.30;;;21.10;52.90;;;;;;5081238;28;20020;-39
2022/04/26 09:41:58;;;;;;;9.93;5.13;;;20.20;54.30;;;;;;5081279;28;20028;-39
2022/04/26 09:44:34;;;;;;;5.85;4.25;;;19.60;55.70;;;;;;5079680;28;20036;-39
2022/04/26 09:47:00;;;;;;;8.40;4.88;;;18.90;57.70;;;;;;5078868;28;20020;-39
2022/04/26 09:49:26;;;;;;;6.03;4.45;;;18.70;58.90;;;;;;5081720;28;20056;-39
2022/04/26 09:51:56;;;;;;;8.70;4.30;;;18.10;59.80;;;;;;5079401;28;20079;-39
2022/04/26 09:54:22;;;;;;;8.52;5.10;;;17.70;60.30;;;;;;5080274;28;20020;-39
2022/04/26 09:56:48;;;;;;;7.80;5.03;;;17.60;61.80;;;;;;5081292;28;20031;-39
2022/04/26 09:59:20;;;;;;;10.02;5.15;;;17.30;60.50;;;;;;5081446;28;20081;-39
2022/04/26 10:01:53;;;;;;;8.35;4.72;;;17.10;61.50;;;;;;5079568;28;20119;-39
2022/04/26 10:04:22;;;;;;;8.80;4.32;;;17.00;62.90;;;;;;5080137;28;20012;-39
2022/04/26 10:06:52;;;;;;;11.60;4.90;;;16.90;64.00;;;;;;5079704;28;20265;-39
2022/04/26 10:09:18;;;;;;;6.63;3.97;;;16.80;63.40;;;;;;5081786;28;20017;-39
2022/04/26 10:11:44;;;;;;;7.75;4.45;;;16.70;64.10;;;;;;5078912;28;20077;-39
2022/04/26 10:14:11;;;;;;;7.03;4.63;;;16.70;66.10;;;;;;5079308;28;20384;-39
2022/04/26 10:16:38;;;;;;;7.97;4.35;;;16.60;64.70;;;;;;5081401;28;20028;-39
2022/04/26 10:19:09;;;;;;;6.95;4.10;;;16.60;64.70;;;;;;5080157;28;20020;-39
2022/04/26 10:21:40;;;;;;;7.78;4.70;;;16.50;64.90;;;;;;5080465;28;20402;-39
2022/04/26 10:24:21;;;;;;;5.30;3.95;;;16.50;64.60;;;;;;5079775;28;20157;-39
2022/04/26 10:26:48;;;;;;;5.63;4.43;;;16.60;65.70;;;;;;5080049;28;20028;-39
2022/04/26 10:29:15;;;;;;;9.38;5.40;;;16.40;64.90;;;;;;5072221;28;20061;-39
2022/04/26 10:31:42;;;;;;;7.78;4.82;;;16.20;64.90;;;;;;5070600;28;20025;-39
2022/04/26 10:34:33;;;;;;;7.30;4.00;;;16.20;62.90;;;;;;5086743;28;20454;-43
2022/04/26 10:37:08;;;;;;;7.18;4.35;;;16.20;67.10;;;;;;5074232;28;20036;-39
2022/04/26 10:39:42;;;;;;;6.78;4.55;;;16.10;67.50;;;;;;5078261;28;20017;-39
2022/04/26 10:42:17;;;;;;;4.93;3.85;;;16.20;65.80;;;;;;5079849;28;20437;-39
2022/04/26 10:44:48;;;;;;;7.00;3.90;;;15.90;64.70;;;;;;5080382;28;20023;-39
2022/04/26 10:47:18;;;;;;;5.45;4.05;;;16.00;66.90;;;;;;5078132;28;20066;-39
2022/04/26 10:49:45;;;;;;;7.72;4.45;;;16.00;65.70;;;;;;5078588;28;20024;-39
2022/04/26 10:52:22;;;;;;;7.88;4.70;;;16.00;65.80;;;;;;5077658;28;20021;-38
2022/04/26 10:55:02;;;;;;;5.40;3.92;;;15.90;68.20;;;;;;5080201;28;20056;-39
2022/04/26 10:57:33;;;;;;;10.68;5.00;;;15.70;69.10;;;;;;5079357;28;20470;-39
2022/04/26 11:00:05;;;;;;;8.02;6.25;;;15.50;73.30;;;;;;5073383;28;20497;-38
2022/04/26 11:02:35;;;;;;;8.52;6.38;;;15.40;74.90;;;;;;5074388;28;20085;-38
2022/04/26 11:05:25;;;;;;;10.48;6.25;;;15.10;79.90;;;;;;5085155;28;20020;-38
2022/04/26 11:07:51;;;;;;;14.25;6.65;;;14.80;83.50;;;;;;5073700;28;20218;-38
2022/04/26 11:11:00;;;;;;;8.38;5.82;;;14.70;90.90;;;;;;5072900;28;20449;-40
2022/04/26 11:13:30;;;;;;;10.98;7.38;;;14.50;96.90;;;;;;5068062;28;20107;-40
2022/04/26 11:16:12;;;;;;;13.18;7.75;;;14.30;99.90;;;;;;5088077;28;20026;-40
2022/04/26 11:18:42;;;;;;;13.65;7.00;;;14.10;99.90;;;;;;5089477;28;20526;-39
2022/04/26 11:21:08;;;;;;;13.18;8.68;;;13.60;99.90;;;;;;5089308;28;20024;-38
2022/04/26 11:29:26;;;;;;;12.15;7.95;;;13.30;99.90;;;;;;5078318;28;20381;-39
2022/04/26 11:31:55;;;;;;;10.15;7.43;;;13.10;99.90;;;;;;5080449;28;20036;-38
2022/04/26 11:34:41;;;;;;;15.13;8.45;;;13.00;99.90;;;;;;5084278;28;20020;-37
2022/04/26 11:37:07;;;;;;;11.40;6.97;;;13.00;99.90;;;;;;5078780;28;20024;-38
2022/04/26 11:39:40;;;;;;;11.93;8.07;;;13.00;99.90;;;;;;5076661;28;20044;-38
2022/04/26 11:42:06;;;;;;;8.52;7.22;;;13.00;99.90;;;;;;5077403;28;20028;-38
2022/04/26 11:44:31;;;;;;;7.57;6.65;;;12.90;99.90;;;;;;5077917;28;20037;-38
2022/04/26 11:46:58;;;;;;;10.63;7.03;;;12.90;99.90;;;;;;5079401;28;20059;-38
2022/04/26 11:49:40;;;;;;;11.50;7.60;;;12.90;99.90;;;;;;5079828;28;20470;-38
2022/04/26 11:52:06;;;;;;;11.63;7.88;;;12.90;99.90;;;;;;5079182;28;20440;-38
2022/04/26 11:54:36;;;;;;;10.85;7.50;;;13.00;99.90;;;;;;5077958;28;20534;-38
2022/04/26 11:57:04;;;;;;;11.68;8.20;;;12.90;99.90;;;;;;5078596;28;20381;-38
2022/04/26 11:59:31;;;;;;;10.10;7.25;;;13.00;99.90;;;;;;5078115;28;20028;-38
2022/04/26 12:01:57;;;;;;;9.18;6.70;;;12.90;99.90;;;;;;5076337;28;20024;-38
2022/04/26 12:04:23;;;;;;;10.48;6.60;;;12.90;99.90;;;;;;5078615;28;20293;-38
2022/04/26 12:06:50;;;;;;;9.30;7.25;;;13.00;99.90;;;;;;5079717;28;20446;-38
2022/04/26 12:09:16;;;;;;;7.20;4.68;;;13.00;99.90;;;;;;5078184;28;20108;-37
2022/04/26 12:11:44;;;;;;;8.38;4.57;;;13.20;99.90;;;;;;5074969;28;20107;-38
2022/04/26 12:14:28;;;;;;;7.30;4.65;;;13.40;99.90;;;;;;5058467;28;20055;-37
2022/04/26 12:16:55;;;;;;;7.30;4.78;;;13.50;99.90;;;;;;5076649;28;20493;-38
2022/04/26 12:19:36;;;;;;;6.47;5.40;;;13.60;99.90;;;;;;5076611;28;20342;-38
2022/04/26 12:22:02;;;;;;;6.72;5.15;;;13.80;99.90;;;;;;5076697;28;20028;-38
2022/04/26 12:24:30;;;;;;;4.88;4.00;;;13.90;99.90;;;;;;5075759;28;20097;-38
2022/04/26 12:26:56;;;;;;;6.88;4.47;;;14.00;99.90;;;;;;5075588;28;20035;-38
2022/04/26 12:29:24;;;;;;;4.57;3.83;;;14.10;99.90;;;;;;5071180;28;20069;-39
2022/04/26 12:31:49;;;;;;;10.02;6.30;;;14.30;99.90;;;;;;5074068;28;20241;-38
2022/04/26 12:34:20;;;;;;;11.15;6.40;;;14.30;99.90;;;;;;5072410;28;20025;-38
2022/04/26 12:36:58;;;;;;;7.38;5.13;;;14.40;99.90;;;;;;5074631;28;20413;-38
2022/04/26 12:39:48;;;;;;;13.13;7.10;;;14.50;99.90;;;;;;5077809;28;20017;-38
2022/04/26 12:42:28;;;;;;;8.60;5.35;;;14.80;99.90;;;;;;5076940;28;20028;-38
2022/04/26 12:45:00;;;;;;;6.28;4.60;;;15.00;99.90;;;;;;5078942;28;20554;-38
2022/04/26 12:50:30;;;;;;;7.50;4.13;;;15.70;99.90;;;;;;5077541;28;20116;-38
2022/04/26 12:53:07;;;;;;;5.20;3.90;;;16.10;99.90;;;;;;5078341;28;20024;-39
2022/04/26 12:55:37;;;;;;;4.85;3.88;;;16.40;99.90;;;;;;5082460;28;20015;-38
2022/04/26 12:58:07;;;;;;;6.82;4.28;;;16.50;99.00;;;;;;5081920;28;20077;-39
2022/04/26 13:00:35;;;;;;;6.45;4.45;;;16.80;96.60;;;;;;5082682;28;20016;-38
2022/04/26 13:03:04;;;;;;;5.18;4.38;;;17.10;95.80;;;;;;5080411;28;20020;-39
2022/04/26 13:05:41;;;;;;;5.88;5.00;;;17.30;97.70;;;;;;5081688;28;20246;-39
2022/04/26 13:08:11;;;;;;;9.18;4.97;;;17.50;95.20;;;;;;5081908;28;20060;-39
2022/04/26 13:10:37;;;;;;;7.07;5.22;;;17.40;94.60;;;;;;5080566;28;20021;-38
2022/04/26 13:13:03;;;;;;;6.93;4.60;;;17.40;95.00;;;;;;5081891;28;20008;-39
2022/04/26 13:15:29;;;;;;;8.63;4.63;;;17.50;95.20;;;;;;5081878;28;20444;-39
2022/04/26 13:17:59;;;;;;;8.13;4.88;;;17.60;93.20;;;;;;5079998;28;20108;-38
2022/04/26 13:20:25;;;;;;;5.70;4.15;;;17.60;92.70;;;;;;5075304;28;20493;-38
2022/04/26 13:22:50;;;;;;;6.75;4.40;;;17.50;91.30;;;;;;5077498;28;20078;-39
2022/04/26 13:25:16;;;;;;;7.03;4.70;;;17.60;90.40;;;;;;5080531;28;20086;-39
2022/04/26 13:27:41;;;;;;;6.93;5.32;;;17.60;91.80;;;;;;5082552;28;20078;-38
2022/04/26 13:30:08;;;;;;;6.43;5.25;;;17.50;92.70;;;;;;5081558;28;20051;-39
2022/04/26 13:32:34;;;;;;;4.82;4.32;;;17.60;92.40;;;;;;5079567;28;20023;-39
2022/04/26 13:35:00;;;;;;;6.07;5.10;;;18.10;91.40;;;;;;5082712;28;20016;-39
2022/04/26 13:37:27;;;;;;;12.57;5.45;;;18.50;90.20;;;;;;5081766;28;20016;-39
2022/04/26 13:39:54;;;;;;;6.43;4.60;;;18.60;88.20;;;;;;5088754;28;20508;-39
2022/04/26 13:42:21;;;;;;;5.22;3.63;;;19.00;84.70;;;;;;5073630;28;20502;-39
2022/04/26 13:44:47;;;;;;;4.65;3.20;;;19.20;76.20;;;;;;5078668;28;20032;-39
2022/04/26 13:47:13;;;;;;;8.00;3.17;;;19.50;78.20;;;;;;5079096;28;20035;-39
2022/04/26 13:49:39;;;;;;;5.18;3.78;;;19.50;80.00;;;;;;5075011;28;20024;-39
2022/04/26 13:52:05;;;;;;;7.38;5.07;;;19.50;76.90;;;;;;5078688;28;20099;-39
2022/04/26 13:54:31;;;;;;;7.35;4.78;;;19.30;74.00;;;;;;5079798;28;20024;-39
2022/04/26 13:56:57;;;;;;;14.88;6.55;;;19.10;73.30;;;;;;5087872;28;20505;-39
2022/04/26 13:59:24;;;;;;;7.50;5.10;;;19.10;71.30;;;;;;5084050;28;20024;-39
2022/04/26 14:01:54;;;;;;;6.97;5.05;;;18.80;77.90;;;;;;5077335;28;20027;-39
2022/04/26 14:04:20;;;;;;;8.23;5.25;;;18.60;76.40;;;;;;5076228;28;20032;-39
2022/04/26 14:06:46;;;;;;;6.32;5.18;;;18.50;74.90;;;;;;5075063;28;20106;-39
2022/04/26 14:09:12;;;;;;;8.02;5.43;;;18.30;75.80;;;;;;5078475;28;20053;-39
2022/04/26 14:11:38;;;;;;;9.90;5.35;;;18.00;74.70;;;;;;5073439;28;20074;-39
2022/04/26 14:22:26;;;;;;;9.90;4.65;;;18.50;73.20;;;;;;5079153;28;20067;-39
2022/04/26 14:24:53;;;;;;;3.72;3.40;;;18.20;70.10;;;;;;5078165;28;20032;-39
2022/04/26 14:27:20;;;;;;;4.82;3.47;;;18.10;76.10;;;;;;5076216;28;20099;-39
2022/04/26 14:29:45;;;;;;;8.73;3.75;;;18.30;73.30;;;;;;5079921;28;20500;-39
2022/04/26 14:32:12;;;;;;;4.40;3.88;;;18.30;74.20;;;;;;5083919;28;20079;-39
2022/04/26 14:34:39;;;;;;;5.13;4.03;;;18.30;76.80;;;;;;5083841;28;20059;-39
2022/04/26 14:37:05;;;;;;;5.20;3.95;;;18.00;73.40;;;;;;5078009;28;20013;-38
2022/04/26 14:39:31;;;;;;;4.45;3.88;;;17.70;70.50;;;;;;5078853;28;20089;-39
2022/04/26 14:41:56;;;;;;;7.28;3.97;;;17.40;71.90;;;;;;5079160;28;20506;-38
2022/04/26 14:44:22;;;;;;;5.47;3.95;;;17.30;77.40;;;;;;5075239;28;20024;-38
2022/04/26 14:46:47;;;;;;;5.45;3.65;;;17.30;79.30;;;;;;5083725;28;20098;-39
2022/04/26 14:49:13;;;;;;;5.57;3.72;;;17.10;79.00;;;;;;5085706;28;20016;-40
2022/04/26 14:51:38;;;;;;;5.10;3.45;;;17.00;80.10;;;;;;5076022;28;20351;-39
2022/04/26 14:54:04;;;;;;;4.57;3.10;;;17.00;77.70;;;;;;5070120;28;20103;-38
2022/04/26 14:56:29;;;;;;;7.15;3.97;;;17.00;78.50;;;;;;5070154;28;20429;-38
2022/04/26 14:58:55;;;;;;;9.15;5.00;;;16.90;78.30;;;;;;5071479;28;20552;-39
2022/04/26 15:01:21;;;;;;;6.95;4.10;;;16.70;81.50;;;;;;5078299;28;20021;-38
2022/04/26 15:03:46;;;;;;;6.95;4.57;;;16.60;79.90;;;;;;5073986;28;20367;-38
2022/04/26 15:06:12;;;;;;;6.32;4.03;;;16.50;81.60;;;;;;5075691;28;20017;-38
2022/04/26 15:11:22;;;;;;;5.20;3.38;;;16.40;83.30;;;;;;5071674;28;20508;-38
2022/04/26 15:16:38;;;;;;;6.00;4.45;;;16.60;85.80;;;;;;5079681;28;20018;-38
2022/04/26 15:19:11;;;;;;;8.60;4.68;;;16.60;80.80;;;;;;5074012;28;20062;-38
2022/04/26 15:21:42;;;;;;;7.85;4.40;;;16.70;79.60;;;;;;5080956;28;20028;-39
2022/04/26 15:24:08;;;;;;;9.25;4.00;;;16.80;83.80;;;;;;5072826;28;20027;-39
2022/04/26 15:26:34;;;;;;;5.32;4.72;;;16.90;79.00;;;;;;5066854;28;20036;-39
2022/04/26 15:29:00;;;;;;;5.75;4.00;;;17.00;78.60;;;;;;5067290;28;20020;-38
2022/04/26 15:31:26;;;;;;;5.32;3.92;;;17.00;78.70;;;;;;5066945;28;20525;-39
2022/04/26 15:33:52;;;;;;;5.97;4.25;;;17.10;76.50;;;;;;5069938;28;20073;-38
2022/04/26 15:36:19;;;;;;;4.75;3.80;;;17.10;75.70;;;;;;5077409;28;20069;-39
2022/04/26 15:38:45;;;;;;;5.35;3.92;;;17.00;77.60;;;;;;5075312;28;20032;-39
2022/04/26 15:41:11;;;;;;;7.45;4.38;;;17.00;80.40;;;;;;5068173;28;20035;-38
2022/04/26 15:43:38;;;;;;;6.03;4.00;;;17.00;79.40;;;;;;5066354;28;20124;-40
2022/04/26 15:46:06;;;;;;;4.47;3.60;;;16.90;78.10;;;;;;5064885;28;20059;-40
2022/04/26 15:48:42;;;;;;;8.23;4.75;;;16.90;79.20;;;;;;5083581;28;20024;-40
2022/04/26 15:51:08;;;;;;;8.68;4.45;;;16.80;78.80;;;;;;5085196;28;20020;-36
2022/04/26 15:53:34;;;;;;;7.30;4.45;;;16.70;78.80;;;;;;5085263;28;20044;-39
2022/04/26 15:56:00;;;;;;;6.32;4.20;;;16.60;80.90;;;;;;5084355;28;20107;-39
2022/04/26 15:58:26;;;;;;;6.18;4.68;;;16.60;81.30;;;;;;5076612;28;20489;-39
2022/04/26 16:00:54;;;;;;;6.55;4.40;;;16.50;80.50;;;;;;5068609;28;20040;-39
2022/04/26 16:03:19;;;;;;;6.38;4.80;;;16.40;83.50;;;;;;5067499;28;20588;-38
2022/04/26 16:05:45;;;;;;;4.70;3.72;;;16.30;81.30;;;;;;5067566;28;20044;-40
2022/04/26 16:08:11;;;;;;;8.35;4.95;;;16.10;82.50;;;;;;5067218;28;20032;-39
2022/04/26 16:21:33;;;;;;;5.45;4.20;;;15.70;83.70;;;;;;5075382;28;20366;-38
2022/04/26 16:24:00;;;;;;;6.57;4.32;;;15.70;85.60;;;;;;5072786;28;20056;-39
2022/04/26 16:26:27;;;;;;;7.53;4.55;;;15.70;85.30;;;;;;5079477;28;20020;-38
2022/04/26 16:28:53;;;;;;;5.93;4.75;;;15.70;87.50;;;;;;5074964;28;20108;-38
2022/04/26 16:31:28;;;;;;;7.32;5.05;;;15.80;84.30;;;;;;5077091;28;20116;-39
2022/04/26 16:33:55;;;;;;;5.78;3.95;;;15.80;85.70;;;;;;5075908;28;20595;-39
2022/04/26 16:36:21;;;;;;;5.20;3.95;;;15.70;83.40;;;;;;5076443;28;20052;-38
2022/04/26 16:38:47;;;;;;;6.45;4.63;;;15.70;85.80;;;;;;5076571;28;20068;-38
2022/04/26 16:41:13;;;;;;;7.35;4.68;;;15.60;87.90;;;;;;5086330;28;20028;-38
2022/04/26 16:43:39;;;;;;;6.28;4.95;;;15.60;85.60;;;;;;5086402;28;20115;-38
2022/04/26 16:46:06;;;;;;;7.10;4.68;;;15.50;84.30;;;;;;5087851;28;20102;-38
2022/04/26 16:48:33;;;;;;;7.53;4.03;;;15.40;86.50;;;;;;5085882;28;20024;-39
2022/04/26 16:50:58;;;;;;;5.55;4.07;;;15.30;87.20;;;;;;5087345;28;20060;-38
2022/04/26 16:53:24;;;;;;;6.68;5.20;;;15.20;87.30;;;;;;5086747;28;20059;-38
2022/04/26 16:55:50;;;;;;;6.50;4.25;;;15.10;86.90;;;;;;5087086;28;20450;-39
2022/04/26 16:58:18;;;;;;;6.32;4.65;;;14.90;87.90;;;;;;5086854;28;20103;-39
2022/04/26 17:00:45;;;;;;;5.05;4.45;;;14.80;88.90;;;;;;5084327;28;20031;-39
2022/04/26 17:03:11;;;;;;;5.95;4.63;;;14.80;92.80;;;;;;5067591;28;20021;-39
2022/04/26 17:05:38;;;;;;;6.25;5.03;;;14.70;92.80;;;;;;5066544;28;20024;-39